Terminal Aerodrome Forecast
Issued by NWS

Home | Current Version | Previous Version | Text Only | Print | Product List | Glossary On
Versions: 1 2 3 4 5 6 7 8 9 10 11 12 13 14 15 16 17
000
FTUS43 KIND 242300
TAFBMG
TAF
KBMG 242320Z 2500/2524 13012G16KT P6SM BKN150
     FM250500 16012KT 5SM -SHRA OVC050
      TEMPO 2506/2508 2SM TSRA OVC035CB
     FM250900 19010KT 3SM -SHRA VCTS OVC020CB
     FM251400 29015G22KT P6SM SCT040
     FM251600 30015G22KT P6SM FEW050
      AMD LTD TO CLD VIS AND WIND 2501/2513=

USA.gov is the U.S. government's official web portal to all federal, state and local government web resources and services.